createdAt,value
2019-03-23T00:00:47.246Z,44.45
2019-03-23T00:03:15.683Z,43.23
2019-03-23T00:05:44.114Z,44.88
2019-03-23T00:08:12.534Z,43.68
2019-03-23T00:10:40.977Z,42.58
2019-03-23T00:13:09.403Z,46.42
2019-03-23T00:15:37.822Z,45.30
2019-03-23T00:18:06.251Z,45.48
2019-03-23T00:20:34.670Z,44.27
2019-03-23T00:23:03.095Z,44.05
2019-03-23T00:28:13.474Z,43.58
2019-03-23T00:30:41.951Z,45.28
2019-03-23T00:33:10.400Z,46.80
2019-03-23T00:35:38.859Z,45.73
2019-03-23T00:38:07.276Z,45.60
2019-03-23T00:40:35.728Z,43.87
2019-03-23T00:43:04.242Z,44.73
2019-03-23T00:45:32.679Z,45.15
2019-03-23T00:48:01.130Z,45.88
2019-03-23T00:50:29.633Z,44.08
2019-03-23T00:52:58.059Z,46.10
2019-03-23T00:55:26.554Z,47.83
2019-03-23T00:57:55.011Z,48.28
2019-03-23T01:00:23.454Z,46.53
2019-03-23T01:02:51.871Z,48.50
2019-03-23T01:05:20.568Z,48.65
2019-03-23T01:07:49.009Z,48.10
2019-03-23T01:10:17.478Z,48.60
2019-03-23T01:12:45.899Z,49.55
2019-03-23T01:15:14.776Z,46.88
2019-03-23T01:17:43.198Z,45.45
2019-03-23T01:20:13.166Z,46.48
2019-03-23T01:22:41.613Z,47.73
2019-03-23T01:25:11.070Z,47.23
2019-03-23T01:27:39.519Z,46.98
2019-03-23T01:30:11.737Z,46.40
2019-03-23T01:32:40.228Z,44.95
2019-03-23T01:35:09.044Z,46.23
2019-03-23T01:37:37.467Z,49.18
2019-03-23T01:40:07.325Z,46.73
2019-03-23T01:42:35.755Z,46.18
2019-03-23T01:45:06.815Z,47.05
2019-03-23T01:47:35.278Z,47.65
2019-03-23T01:50:06.225Z,46.85
2019-03-23T01:52:34.713Z,46.45
2019-03-23T01:55:04.330Z,46.85
2019-03-23T01:57:32.766Z,47.03
2019-03-23T02:00:01.204Z,46.23
2019-03-23T02:02:29.623Z,45.10
2019-03-23T02:04:58.043Z,45.60
2019-03-23T02:07:26.490Z,45.63
2019-03-23T02:09:54.927Z,45.83
2019-03-23T02:12:23.346Z,47.35
2019-03-23T02:14:51.798Z,46.53
2019-03-23T02:17:20.308Z,46.50
2019-03-23T02:19:48.755Z,48.48
2019-03-23T02:22:17.178Z,47.48
2019-03-23T02:24:45.622Z,46.37
2019-03-23T02:27:14.066Z,46.95
2019-03-23T02:29:42.541Z,45.25
2019-03-23T02:32:11.048Z,46.70
2019-03-23T02:34:39.486Z,46.18
2019-03-23T02:37:07.923Z,47.25
2019-03-23T02:39:36.370Z,46.68
2019-03-23T02:42:05.045Z,46.20
2019-03-23T02:44:33.488Z,45.20
2019-03-23T02:47:01.923Z,47.15
2019-03-23T02:49:30.372Z,46.45
2019-03-23T02:51:58.859Z,47.03
2019-03-23T02:54:27.298Z,45.98
2019-03-23T02:56:55.722Z,46.10
2019-03-23T02:59:24.147Z,45.88
2019-03-23T03:01:52.579Z,46.75
2019-03-23T03:04:21.022Z,47.48
2019-03-23T03:06:49.454Z,47.62
2019-03-23T03:09:17.915Z,48.55
2019-03-23T03:11:46.359Z,49.20
2019-03-23T03:14:34.204Z,48.78
2019-03-23T03:17:02.611Z,48.60
2019-03-23T03:19:31.054Z,51.20
2019-03-23T03:21:59.475Z,50.67
2019-03-23T03:24:27.906Z,49.77
2019-03-23T03:26:56.326Z,48.13
2019-03-23T03:29:24.751Z,48.15
2019-03-23T03:31:53.185Z,51.15
2019-03-23T03:34:21.636Z,50.28
2019-03-23T03:36:50.059Z,51.88
2019-03-23T03:39:18.516Z,51.00
2019-03-23T03:41:47.037Z,52.17
2019-03-23T03:44:15.524Z,52.35
2019-03-23T03:46:43.949Z,49.88
2019-03-23T03:49:13.130Z,53.35
2019-03-23T03:51:41.687Z,51.23
2019-03-23T03:54:10.123Z,50.98
2019-03-23T03:56:38.549Z,50.65
2019-03-23T03:59:06.976Z,50.45
2019-03-23T04:01:35.429Z,52.48
2019-03-23T04:04:03.851Z,50.98
2019-03-23T04:06:32.298Z,49.63
2019-03-23T04:09:00.714Z,48.10
2019-03-23T04:11:29.182Z,49.75
2019-03-23T04:13:57.591Z,49.53
2019-03-23T04:16:26.023Z,51.13
2019-03-23T04:18:54.506Z,49.20
2019-03-23T04:21:22.933Z,47.10
2019-03-23T04:23:51.376Z,48.23
2019-03-23T04:26:19.908Z,48.20
2019-03-23T04:28:48.390Z,47.35
2019-03-23T04:31:16.821Z,47.30
2019-03-23T04:33:45.266Z,46.80
2019-03-23T04:36:13.683Z,45.63
2019-03-23T04:38:42.123Z,47.33
2019-03-23T04:41:10.567Z,45.38
2019-03-23T04:43:39.003Z,43.58
2019-03-23T04:46:07.425Z,43.63
2019-03-23T04:48:35.859Z,42.93
2019-03-23T04:51:04.358Z,42.85
2019-03-23T04:53:32.806Z,40.48
2019-03-23T04:56:04.433Z,42.00
2019-03-23T04:58:32.894Z,41.02
2019-03-23T05:01:01.501Z,40.00
2019-03-23T05:03:29.950Z,39.67
2019-03-23T05:06:02.050Z,39.78
2019-03-23T05:08:33.555Z,38.83
2019-03-23T05:11:00.646Z,39.08
2019-03-23T05:13:29.089Z,39.63
2019-03-23T05:15:57.526Z,40.98
2019-03-23T05:18:25.946Z,41.45
2019-03-23T05:20:54.389Z,42.65
2019-03-23T05:23:22.837Z,41.83
2019-03-23T05:25:51.267Z,40.95
2019-03-23T05:28:19.706Z,39.70
2019-03-23T05:30:48.190Z,41.23
2019-03-23T05:33:16.627Z,40.15
2019-03-23T05:35:45.070Z,40.48
2019-03-23T05:38:13.495Z,42.05
2019-03-23T05:40:41.926Z,41.58
2019-03-23T05:43:10.398Z,41.20
2019-03-23T05:45:38.835Z,42.45
2019-03-23T05:48:07.280Z,40.63
2019-03-23T05:50:35.725Z,41.10
2019-03-23T05:53:04.206Z,39.60
2019-03-23T05:55:32.634Z,40.45
2019-03-23T05:58:01.090Z,39.70
2019-03-23T06:00:29.554Z,40.30
2019-03-23T06:02:57.979Z,38.80
2019-03-23T06:05:26.424Z,40.28
2019-03-23T06:07:54.862Z,40.05
2019-03-23T06:10:23.278Z,39.48
2019-03-23T06:12:51.726Z,40.40
2019-03-23T06:15:20.147Z,39.80
2019-03-23T06:17:48.610Z,39.83
2019-03-23T06:20:17.094Z,38.10
2019-03-23T06:22:45.523Z,38.50
2019-03-23T06:25:13.962Z,37.70
2019-03-23T06:27:42.375Z,39.23
2019-03-23T06:30:11.766Z,37.70
2019-03-23T06:32:40.200Z,35.48
2019-03-23T06:35:08.876Z,36.73
2019-03-23T06:37:37.291Z,34.25
2019-03-23T06:40:09.042Z,34.30
2019-03-23T06:42:37.489Z,33.10
2019-03-23T06:45:07.879Z,33.55
2019-03-23T06:47:36.295Z,34.27
2019-03-23T06:50:06.785Z,33.25
2019-03-23T06:52:35.232Z,33.15
2019-03-23T06:55:06.222Z,33.50
2019-03-23T06:57:34.662Z,32.80
2019-03-23T07:00:04.639Z,30.88
2019-03-23T07:02:33.072Z,31.35
2019-03-23T07:05:01.505Z,30.80
2019-03-23T07:07:29.953Z,31.27
2019-03-23T07:09:58.379Z,31.42
2019-03-23T07:12:26.798Z,30.72
2019-03-23T07:14:55.247Z,30.95
2019-03-23T07:17:23.683Z,29.18
2019-03-23T07:19:52.167Z,29.35
2019-03-23T07:22:20.602Z,28.45
2019-03-23T07:24:49.066Z,29.23
2019-03-23T07:27:17.577Z,29.02
2019-03-23T07:29:46.000Z,27.50
2019-03-23T07:32:14.442Z,28.15
2019-03-23T07:34:42.875Z,28.90
2019-03-23T07:37:11.303Z,28.12
2019-03-23T07:39:39.755Z,28.40
2019-03-23T07:42:08.197Z,26.00
2019-03-23T07:44:36.654Z,27.55
2019-03-23T07:47:05.138Z,27.02
2019-03-23T07:49:33.646Z,26.80
2019-03-23T07:52:02.083Z,26.90
2019-03-23T07:54:30.494Z,27.42
2019-03-23T07:56:58.962Z,25.95
2019-03-23T07:59:27.463Z,25.75
2019-03-23T08:01:55.914Z,26.40
2019-03-23T08:04:24.426Z,24.35
2019-03-23T08:06:52.858Z,23.80
2019-03-23T08:09:23.497Z,28.47
2019-03-23T08:11:51.485Z,24.37
2019-03-23T08:14:19.910Z,22.35
2019-03-23T08:16:48.353Z,22.45
2019-03-23T08:19:16.808Z,22.30
2019-03-23T08:21:45.250Z,23.27
2019-03-23T08:24:13.704Z,22.02
2019-03-23T08:26:42.154Z,21.93
2019-03-23T08:29:10.603Z,21.77
2019-03-23T08:31:39.065Z,21.33
2019-03-23T08:34:07.501Z,20.95
2019-03-23T08:36:36.000Z,20.12
2019-03-23T08:39:05.783Z,19.82
2019-03-23T08:41:34.238Z,19.67
2019-03-23T08:44:02.683Z,19.30
2019-03-23T08:46:31.126Z,18.15
2019-03-23T08:48:59.558Z,17.12
2019-03-23T08:51:28.011Z,17.77
2019-03-23T08:53:56.466Z,17.02
2019-03-23T08:56:24.911Z,14.60
2019-03-23T08:58:53.358Z,13.08
2019-03-23T09:01:21.801Z,14.43
2019-03-23T09:03:52.776Z,12.33
2019-03-23T09:06:20.463Z,12.33
2019-03-23T09:08:48.902Z,10.95
2019-03-23T09:11:20.654Z,10.82
2019-03-23T09:13:47.522Z,10.45
2019-03-23T09:16:15.979Z,9.00
2019-03-23T09:18:44.398Z,9.05
2019-03-23T09:21:13.015Z,8.38
2019-03-23T09:23:41.534Z,8.00
2019-03-23T09:26:09.985Z,8.73
2019-03-23T09:28:38.410Z,8.13
2019-03-23T09:31:06.823Z,7.08
2019-03-23T09:33:35.256Z,7.95
2019-03-23T09:36:03.731Z,7.72
2019-03-23T09:38:32.176Z,7.03
2019-03-23T09:41:00.620Z,6.78
2019-03-23T09:43:29.131Z,6.65
2019-03-23T09:48:31.347Z,5.78
2019-03-23T09:50:59.778Z,4.85
2019-03-23T09:53:28.204Z,5.45
2019-03-23T09:55:56.638Z,5.35
2019-03-23T09:58:25.091Z,5.25
2019-03-23T10:00:53.554Z,4.67
2019-03-23T10:03:21.998Z,4.70
2019-03-23T10:05:50.412Z,4.40
2019-03-23T10:08:18.838Z,4.53
2019-03-23T10:10:47.282Z,4.30
2019-03-23T10:13:15.717Z,4.78
2019-03-23T10:15:44.190Z,4.60
2019-03-23T10:18:12.638Z,4.03
2019-03-23T10:20:41.082Z,4.22
2019-03-23T10:23:09.610Z,4.60
2019-03-23T10:25:38.114Z,4.30
2019-03-23T10:28:06.550Z,4.62
2019-03-23T10:30:35.114Z,4.72
2019-03-23T10:33:03.534Z,3.17
2019-03-23T10:35:31.982Z,3.25
2019-03-23T10:38:00.418Z,3.70
2019-03-23T10:40:32.799Z,3.33
2019-03-23T10:42:58.998Z,4.00
2019-03-23T10:45:27.571Z,3.40
2019-03-23T10:50:24.458Z,3.75
2019-03-23T10:52:52.902Z,3.05
2019-03-23T10:55:21.326Z,3.80
2019-03-23T10:57:49.756Z,3.72
2019-03-23T11:00:18.354Z,3.08
2019-03-23T11:02:46.867Z,3.12
2019-03-23T11:05:15.589Z,3.30
2019-03-23T11:07:44.033Z,3.58
2019-03-23T11:10:13.501Z,2.98
2019-03-23T11:12:41.943Z,3.35
2019-03-23T11:15:11.225Z,3.47
2019-03-23T11:17:39.639Z,4.40
2019-03-23T11:20:11.230Z,3.27
2019-03-23T11:22:39.681Z,4.15
2019-03-23T11:25:08.635Z,3.05
2019-03-23T11:27:37.072Z,3.42
2019-03-23T11:30:07.839Z,3.47
2019-03-23T11:32:36.254Z,3.12
2019-03-23T11:35:08.003Z,3.62
2019-03-23T11:37:36.932Z,3.37
2019-03-23T11:40:08.306Z,2.98
2019-03-23T11:42:36.758Z,3.08
2019-03-23T11:45:07.119Z,3.65
2019-03-23T11:47:35.542Z,3.72
2019-03-23T11:50:04.629Z,3.30
2019-03-23T11:52:33.063Z,2.87
2019-03-23T11:55:01.517Z,3.50
2019-03-23T11:57:29.959Z,3.90
2019-03-23T11:59:58.442Z,3.27
2019-03-23T12:02:26.878Z,3.37
2019-03-23T12:04:55.462Z,3.47
2019-03-23T12:07:23.906Z,3.20
2019-03-23T12:09:52.354Z,3.58
2019-03-23T12:12:20.780Z,2.85
2019-03-23T12:14:49.194Z,4.47
2019-03-23T12:17:17.656Z,4.00
2019-03-23T12:19:46.085Z,3.70
2019-03-23T12:22:14.515Z,3.83
2019-03-23T12:24:43.863Z,3.80
2019-03-23T12:27:12.285Z,3.33
2019-03-23T12:29:40.722Z,3.80
2019-03-23T12:32:09.161Z,3.80
2019-03-23T12:34:37.614Z,3.10
2019-03-23T12:37:06.129Z,3.42
2019-03-23T12:39:34.573Z,3.25
2019-03-23T12:42:02.991Z,3.60
2019-03-23T12:44:31.442Z,3.42
2019-03-23T12:46:59.871Z,2.92
2019-03-23T12:49:28.314Z,3.47
2019-03-23T12:51:56.751Z,3.98
2019-03-23T12:54:25.190Z,3.75
2019-03-23T12:56:53.623Z,3.17
2019-03-23T12:59:22.066Z,3.25
2019-03-23T13:01:50.507Z,3.25
2019-03-23T13:04:18.965Z,3.20
2019-03-23T13:06:47.378Z,3.47
2019-03-23T13:09:15.818Z,3.60
2019-03-23T13:11:44.243Z,3.72
2019-03-23T13:14:12.688Z,4.30
2019-03-23T13:16:41.129Z,3.22
2019-03-23T13:19:09.551Z,3.52
2019-03-23T13:21:37.984Z,2.45
2019-03-23T13:24:06.421Z,2.90
2019-03-23T13:26:34.847Z,3.90
2019-03-23T13:29:03.273Z,2.77
2019-03-23T13:31:31.687Z,3.12
2019-03-23T13:34:00.154Z,2.72
2019-03-23T13:36:28.629Z,2.80
2019-03-23T13:38:57.082Z,3.30
2019-03-23T13:41:25.530Z,2.80
2019-03-23T13:43:53.946Z,3.25
2019-03-23T13:46:22.381Z,3.37
2019-03-23T13:48:50.853Z,2.80
2019-03-23T13:51:19.327Z,3.27
2019-03-23T13:53:47.758Z,3.25
2019-03-23T13:56:16.201Z,2.67
2019-03-23T13:58:44.623Z,3.15
2019-03-23T14:01:13.042Z,2.72
2019-03-23T14:03:41.474Z,2.85
2019-03-23T14:06:09.892Z,3.02
2019-03-23T14:08:38.344Z,3.08
2019-03-23T14:11:06.776Z,2.87
2019-03-23T14:13:35.238Z,3.02
2019-03-23T14:16:06.959Z,3.60
2019-03-23T14:18:35.879Z,2.83
2019-03-23T14:21:04.512Z,3.20
2019-03-23T14:23:32.958Z,3.45
2019-03-23T14:26:01.390Z,3.70
2019-03-23T14:28:29.847Z,3.02
2019-03-23T14:30:58.347Z,2.90
2019-03-23T14:33:26.838Z,3.27
2019-03-23T14:35:55.296Z,3.30
2019-03-23T14:38:23.743Z,3.30
2019-03-23T14:40:52.157Z,3.15
2019-03-23T14:43:20.601Z,2.60
2019-03-23T14:45:49.061Z,3.45
2019-03-23T14:48:17.487Z,3.27
2019-03-23T14:50:45.902Z,3.02
2019-03-23T14:53:14.338Z,2.52
2019-03-23T14:55:42.752Z,2.52
2019-03-23T14:58:11.174Z,2.83
2019-03-23T15:00:39.606Z,2.83
2019-03-23T15:03:08.045Z,3.15
2019-03-23T15:05:36.474Z,3.30
2019-03-23T15:08:04.894Z,2.87
2019-03-23T15:10:33.346Z,3.65
2019-03-23T15:13:01.838Z,2.92
2019-03-23T15:15:30.260Z,3.37
2019-03-23T15:17:58.729Z,3.02
2019-03-23T15:20:27.146Z,3.35
2019-03-23T15:22:55.602Z,2.75
2019-03-23T15:25:24.039Z,3.47
2019-03-23T15:27:52.459Z,3.55
2019-03-23T15:30:20.899Z,2.80
2019-03-23T15:32:49.414Z,3.25
2019-03-23T15:35:17.857Z,3.60
2019-03-23T15:37:46.307Z,3.55
2019-03-23T15:40:14.890Z,3.83
2019-03-23T15:42:43.327Z,3.50
2019-03-23T15:45:12.216Z,3.33
2019-03-23T15:47:40.674Z,3.42
2019-03-23T15:50:09.595Z,4.03
2019-03-23T15:52:38.049Z,3.30
2019-03-23T15:55:07.098Z,3.58
2019-03-23T15:57:36.306Z,3.50
2019-03-23T16:00:07.822Z,3.58
2019-03-23T16:02:36.371Z,3.17
2019-03-23T16:05:06.777Z,3.15
2019-03-23T16:07:35.591Z,3.33
2019-03-23T16:10:07.279Z,3.60
2019-03-23T16:12:37.790Z,2.87
2019-03-23T16:15:09.387Z,3.05
2019-03-23T16:17:37.823Z,3.05
2019-03-23T16:20:08.873Z,3.52
2019-03-23T16:22:37.645Z,2.62
2019-03-23T16:25:07.830Z,2.52
2019-03-23T16:27:36.450Z,3.08
2019-03-23T16:30:07.771Z,3.10
2019-03-23T16:32:48.611Z,2.72
2019-03-23T16:35:17.059Z,2.85
2019-03-23T16:37:45.479Z,2.95
2019-03-23T16:40:15.937Z,2.98
2019-03-23T16:42:45.517Z,3.47
2019-03-23T16:45:14.766Z,2.52
2019-03-23T16:47:43.213Z,3.55
2019-03-23T16:50:12.101Z,3.60
2019-03-23T16:52:40.528Z,4.42
2019-03-23T16:58:15.565Z,3.40
2019-03-23T17:00:37.655Z,2.92
2019-03-23T17:03:06.725Z,2.75
2019-03-23T17:05:36.477Z,3.22
2019-03-23T17:08:05.281Z,3.10
2019-03-23T17:10:33.864Z,2.95
2019-03-23T17:13:02.314Z,4.00
2019-03-23T17:15:30.726Z,3.60
2019-03-23T17:17:59.145Z,3.58
2019-03-23T17:20:27.594Z,4.03
2019-03-23T17:22:56.010Z,3.58
2019-03-23T17:25:24.461Z,3.12
2019-03-23T17:27:52.894Z,3.47
2019-03-23T17:30:21.327Z,3.25
2019-03-23T17:32:49.748Z,3.60
2019-03-23T17:35:18.171Z,4.28
2019-03-23T17:37:46.616Z,3.75
2019-03-23T17:40:15.092Z,3.35
2019-03-23T17:42:43.510Z,2.92
2019-03-23T17:45:12.392Z,2.90
2019-03-23T17:47:40.884Z,3.55
2019-03-23T17:50:10.931Z,3.98
2019-03-23T17:52:39.388Z,3.75
2019-03-23T17:58:04.907Z,3.27
2019-03-23T18:00:33.357Z,3.20
2019-03-23T18:03:01.797Z,3.55
2019-03-23T18:05:30.238Z,3.47
2019-03-23T18:07:58.838Z,3.83
2019-03-23T18:10:28.287Z,3.95
2019-03-23T18:12:56.887Z,4.03
2019-03-23T18:15:25.466Z,3.80
2019-03-23T18:17:53.906Z,3.67
2019-03-23T18:20:22.344Z,3.42
2019-03-23T18:22:50.759Z,4.10
2019-03-23T18:25:19.173Z,3.27
2019-03-23T18:27:47.606Z,3.60
2019-03-23T18:30:19.098Z,4.08
2019-03-23T18:32:47.543Z,3.50
2019-03-23T18:35:15.996Z,3.40
2019-03-23T18:37:44.506Z,3.80
2019-03-23T18:40:13.051Z,3.85
2019-03-23T18:42:41.549Z,4.53
2019-03-23T18:45:10.126Z,3.98
2019-03-23T18:47:38.542Z,4.30
2019-03-23T18:50:07.302Z,5.05
2019-03-23T18:52:35.741Z,4.08
2019-03-23T18:55:06.509Z,4.37
2019-03-23T18:57:34.942Z,4.20
2019-03-23T19:00:06.017Z,3.60
2019-03-23T19:02:34.468Z,3.40
2019-03-23T19:05:02.911Z,3.85
2019-03-23T19:07:31.407Z,4.60
2019-03-23T19:09:59.858Z,3.45
2019-03-23T19:12:28.300Z,4.10
2019-03-23T19:14:56.706Z,3.27
2019-03-23T19:17:25.134Z,4.20
2019-03-23T19:19:53.578Z,3.92
2019-03-23T19:22:22.016Z,4.10
2019-03-23T19:24:50.468Z,4.10
2019-03-23T19:27:18.897Z,3.70
2019-03-23T19:29:47.318Z,4.72
2019-03-23T19:32:15.762Z,3.22
2019-03-23T19:34:44.180Z,4.50
2019-03-23T19:37:12.654Z,4.10
2019-03-23T19:39:41.170Z,5.40
2019-03-23T19:42:09.583Z,3.72
2019-03-23T19:44:38.030Z,4.60
2019-03-23T19:47:06.466Z,4.45
2019-03-23T19:49:34.924Z,3.83
2019-03-23T19:52:03.358Z,5.22
2019-03-23T19:54:31.786Z,3.65
2019-03-23T19:57:00.248Z,3.75
2019-03-23T19:59:28.655Z,3.72
2019-03-23T20:01:57.078Z,4.97
2019-03-23T20:04:25.521Z,4.83
2019-03-23T20:06:53.963Z,5.75
2019-03-23T20:09:43.270Z,5.78
2019-03-23T20:12:11.985Z,6.83
2019-03-23T20:14:41.739Z,6.67
2019-03-23T20:17:10.314Z,8.33
2019-03-23T20:19:38.740Z,7.92
2019-03-23T20:22:07.155Z,7.37
2019-03-23T20:24:35.578Z,7.47
2019-03-23T20:27:04.194Z,6.28
2019-03-23T20:29:32.793Z,6.85
2019-03-23T20:32:01.227Z,6.65
2019-03-23T20:34:29.641Z,7.12
2019-03-23T20:36:58.067Z,5.33
2019-03-23T20:39:26.488Z,6.15
2019-03-23T20:41:54.908Z,6.25
2019-03-23T20:44:23.450Z,5.78
2019-03-23T20:46:52.038Z,5.78
2019-03-23T20:49:21.091Z,5.87
2019-03-23T20:51:49.982Z,5.33
2019-03-23T20:54:18.423Z,5.53
2019-03-23T20:56:46.847Z,4.33
2019-03-23T20:59:15.286Z,4.65
2019-03-23T21:01:43.729Z,5.97
2019-03-23T21:04:12.301Z,6.60
2019-03-23T21:06:40.746Z,5.53
2019-03-23T21:09:09.182Z,5.03
2019-03-23T21:11:37.626Z,6.35
2019-03-23T21:14:06.071Z,6.00
2019-03-23T21:19:35.432Z,6.83
2019-03-23T21:22:04.048Z,5.87
2019-03-23T21:24:32.463Z,6.28
2019-03-23T21:27:00.894Z,7.28
2019-03-23T21:29:29.410Z,6.72
2019-03-23T21:31:57.830Z,6.58
2019-03-23T21:34:26.242Z,4.92
2019-03-23T21:36:54.690Z,5.15
2019-03-23T21:39:23.139Z,14.33
2019-03-23T21:41:51.562Z,12.93
2019-03-23T21:44:30.481Z,8.65
2019-03-23T21:46:51.751Z,6.90
2019-03-23T21:49:20.182Z,8.23
2019-03-23T21:51:48.636Z,7.00
2019-03-23T21:54:17.066Z,6.40
2019-03-23T21:56:45.495Z,6.80
2019-03-23T21:59:13.940Z,7.08
2019-03-23T22:01:42.373Z,7.20
2019-03-23T22:04:10.821Z,6.83
2019-03-23T22:06:39.230Z,6.20
2019-03-23T22:09:07.654Z,5.58
2019-03-23T22:11:36.090Z,5.75
2019-03-23T22:14:04.710Z,6.58
2019-03-23T22:16:33.174Z,7.15
2019-03-23T22:19:01.615Z,6.70
2019-03-23T22:21:30.038Z,6.72
2019-03-23T22:23:58.485Z,7.28
2019-03-23T22:26:26.911Z,6.53
2019-03-23T22:28:55.326Z,6.55
2019-03-23T22:31:23.747Z,7.28
2019-03-23T22:33:52.182Z,7.95
2019-03-23T22:36:20.633Z,6.33
2019-03-23T22:38:49.050Z,7.03
2019-03-23T22:41:17.482Z,6.85
2019-03-23T22:43:45.930Z,6.92
2019-03-23T22:46:14.343Z,8.33
2019-03-23T22:48:42.767Z,7.03
2019-03-23T22:51:11.214Z,7.40
2019-03-23T22:53:39.668Z,7.90
2019-03-23T22:56:08.114Z,7.30
2019-03-23T22:58:36.529Z,8.23
2019-03-23T23:01:05.122Z,7.22
2019-03-23T23:03:52.898Z,7.25
2019-03-23T23:06:21.341Z,7.87
2019-03-23T23:08:49.762Z,8.95
2019-03-23T23:11:18.190Z,7.87
2019-03-23T23:13:46.675Z,9.85
2019-03-23T23:16:15.171Z,8.13
2019-03-23T23:18:43.602Z,7.78
2019-03-23T23:21:12.050Z,7.35
2019-03-23T23:23:40.462Z,7.50
2019-03-23T23:26:08.882Z,7.10
2019-03-23T23:28:37.298Z,6.92
2019-03-23T23:31:05.794Z,6.50
2019-03-23T23:33:34.231Z,7.42
2019-03-23T23:36:02.645Z,7.40
2019-03-23T23:38:31.064Z,8.85
2019-03-23T23:40:59.483Z,8.98
2019-03-23T23:43:27.903Z,7.65
2019-03-23T23:45:56.389Z,8.18
2019-03-23T23:48:24.798Z,7.22
2019-03-23T23:50:53.224Z,8.33
2019-03-23T23:53:21.639Z,8.15
2019-03-23T23:55:50.062Z,7.35
2019-03-23T23:58:18.511Z,6.60
